Thursday, May 05, 2016
23:52 UTC
  |  Log In   |  Register Free
Airport Search:

Fairfield County Airport
(KFDW)

Fairfield County Airport Diagram
No Airport Diagram Available

FAA data valid effective Mar 31 2016 - May 26 2016 (unless otherwise noted).

 
 
 
 
 
 
 
 
 
 
 
 
 
 
Current Aviation Weather for KFDW

Weather Summary


The most recent METAR observation for FDW was updated at: 12:55 UTC
METAR for KFDW is not available. Closest METAR is for KCUB
KFDW  (most recent observation was updatred at 52:33 UTC)
052335Z AUTO 27005KT 10SM CLR 15/06 A2967 RMK AO1

KCUB  (21.5 nm NW)   (most recent observation was updated at 52:25 UTC)
052253Z AUTO 32006KT 10SM CLR 18/04 A2968 RMK AO2 SLP048 T01830039 $

KCAE  (22.6 nm NE)   (most recent observation was updated at 52:25 UTC)
052256Z 29017G23KT 10SM SCT095 18/04 A2966 RMK AO2 SLP043 T01830039

TAF for KFDW is not available.
KCUB  (21.5 nm NW)   (most recent observation was updatred at 52:32 UTC)
052320Z 0600/0624 28008G15KT P6SM BKN060 FM060500 29007KT P6SM SCT060 BKN150 FM061500 30010G15KT P6SM VCSH SCT050


KCAE  (22.6 nm NE)   (most recent observation was updatred at 52:32 UTC)
052320Z 0600/0624 30010G15KT P6SM BKN060 FM060500 29007KT P6SM SCT060 BKN150 FM061500 30010G15KT P6SM VCSH SCT050


KMMT  (28.3 nm NW)   (most recent observation was updatred at 52:30 UTC)
052309Z 0523/0705 27009KT 9999 FEW065 SCT110 QNH2958INS TEMPO 0523/0601 28012G20KT BECMG 0600/0601 30012KT 9999 OVC050 QNH2960INS BECMG 0609/0610 29009KT 9999 BKN030 QNH2959INS BECMG 0615/0616 29012KT 9999 SCT065 QNH2958INS TEMPO 0618/0621 30012G20KT 8000 -TSRAGR BKN050CB BECMG 0700/0701 26006KT 9999 BKN060 QNH2962INS TX20/0523Z TN10/0611Z
GlobalAir.com is loading additional information.
 Current Weather at FDW
55.0 F° (13.0 C°)

Northwest winds at 8.1 mph
Pressure:
29.66 in
Humidity:
72%
Wind:
Northwest at 8.1 mph
Dew Point:
46.4 F° (8.0 C°)
Visibility:
10.00 mi
FDW NOAA Radar




Find All Airport Services Find A Hotel Find A Rental Car Find A Golf Course Find A Restaurant $100 Hamburger



Airport Weather Forecast for KFDW

Translated METAR for KFDW (2335 UTC)
METAR:
KFDW 052335Z AUTO 27005KT 10SM CLR 15/06 A2967 RMK AO1
Conditions at:
KFDW (Fairfield County, SC) observed 2335 UTC 05 May 2016
Temperature:
15°C (59°F)
Dewpoint:
6°C (42.8°F) [RH = 54.9]
Pressure:
29.67 inches Hg (1004.7 mb)
Winds:
from the W (270 degrees) at 5.8 mph (5 knots: 2.6 m/s)
Visibility:
10 mile(s)
Ceiling:
at least 12,000 feet AGL
Clouds:
Clear below 12,000 feet AGL
Remarks:
site is un-manned
site is automated and does NOT have a precipitation sensor

Translated TAF for KCUB (Jim Hamilton L B Owens, SC) (2320 UTC)
TAF text:
KCUB 052320Z 0600/0624 28008G15KT P6SM BKN060
Forecast period:
Friday May 06 2016 00:00 UTC - Friday May 06 2016 24:00 UTC
Forecast type:
FROM: standard forecast or significant change
Winds:
from the W (280 degrees) at 9.2 mph (8 knots: 4.1 m/s)
gusting to 17.3 mph (15 knots: 7.7 m/s)
Visibility:
6 or more mile(s) (9.7+ km)
Ceiling:
6,000 feet AGL
Clouds:
Broken Cloud Cover at 6,000 feet AGL
Weather:
no significant weather observed at this time
TAF text:
FM060500 29007KT P6SM SCT060 BKN150
Forecast period:
Friday May 06 2016 05:00 UTC - Friday May 06 2016 15:00 UTC
Forecast type:
FROM: standard forecast or significant change
Winds:
from the WNW (290 degrees) at 8.1 mph (7 knots: 3.6 m/s)
Visibility:
6 or more mile(s) (9.7+ km)
Ceiling:
15,000 feet AGL
Clouds:
Scattered Clouds at 6,000 feet AGL
Broken Cloud Cover at 15,000 feet AGL
Weather:
no significant weather observed at this time
TAF text:
FM061500 30010G15KT P6SM VCSH SCT050
Forecast period:
Friday May 06 2016 15:00 UTC - Friday May 06 2016 24:00 UTC
Forecast type:
FROM: standard forecast or significant change
Winds:
from the WNW (300 degrees) at 11.5 mph (10 knots: 5.1 m/s)
gusting to 17.3 mph (15 knots: 7.7 m/s)
Visibility:
6 or more mile(s) (9.7+ km)
Ceiling:
at least 12,000 feet AGL
Clouds:
Scattered Clouds at 5,000 feet AGL
Weather:
Moderate In Vicinity Shower(s)
FBO's on the Field
FBO Company Facility Photos Services Transportation Aviation Fuel Prices: Prices include tax
Catering Weather Repair Courtesy Rental Type 100LL JetA JetA+ MOGAS 8087
 
S & S Aviation Services

This FBO has not yet been rated
FS:Shell
Last Updated: Mar-31
Login to update fuel prices
SS:
Contact S & S Aviation ServicesMore FBO Information
 
Add another FBO Facility Photos Catering Weather Repair Courtesy Rental Type 100LL JetA JetA+ MOGAS 8087
Services Transportation Aviation Fuel Prices: Prices include tax


model-print
model-print
model-print
model-print